createdAt,value
2019-04-07T00:01:16.908Z,12.60
2019-04-07T00:03:45.468Z,12.63
2019-04-07T00:06:14.512Z,12.68
2019-04-07T00:08:43.265Z,12.52
2019-04-07T00:11:11.812Z,12.69
2019-04-07T00:13:40.272Z,12.60
2019-04-07T00:16:08.741Z,12.67
2019-04-07T00:18:37.397Z,12.60
2019-04-07T00:21:06.229Z,12.42
2019-04-07T00:23:34.776Z,12.57
2019-04-07T00:26:03.314Z,12.50
2019-04-07T00:28:32.453Z,12.49
2019-04-07T00:31:00.983Z,12.45
2019-04-07T00:33:29.431Z,12.32
2019-04-07T00:35:58.189Z,12.35
2019-04-07T00:38:26.860Z,12.29
2019-04-07T00:40:55.556Z,12.37
2019-04-07T00:43:24.205Z,12.43
2019-04-07T00:45:53.227Z,12.33
2019-04-07T00:48:22.154Z,12.33
2019-04-07T00:50:51.239Z,12.30
2019-04-07T00:53:20.046Z,12.31
2019-04-07T00:55:48.651Z,12.23
2019-04-07T00:58:17.111Z,12.15
2019-04-07T01:00:45.550Z,12.16
2019-04-07T01:03:14.033Z,12.20
2019-04-07T01:05:43.498Z,12.14
2019-04-07T01:08:12.100Z,12.10
2019-04-07T01:10:40.626Z,12.05
2019-04-07T01:13:09.263Z,11.98
2019-04-07T01:15:38.366Z,11.96
2019-04-07T01:18:06.918Z,11.98
2019-04-07T01:20:35.386Z,12.03
2019-04-07T01:23:03.989Z,12.03
2019-04-07T01:25:32.582Z,11.91
2019-04-07T01:28:01.036Z,11.91
2019-04-07T01:30:29.505Z,11.94
2019-04-07T01:32:57.980Z,11.94
2019-04-07T01:35:26.772Z,11.82
2019-04-07T01:37:56.099Z,11.82
2019-04-07T01:40:24.650Z,11.79
2019-04-07T01:43:06.756Z,11.50
2019-04-07T01:45:37.940Z,11.50
2019-04-07T01:48:14.870Z,11.49
2019-04-07T01:50:50.873Z,11.63
2019-04-07T01:53:24.523Z,11.63
2019-04-07T01:56:06.634Z,11.55
2019-04-07T01:58:39.416Z,11.55
2019-04-07T02:01:09.500Z,11.47
2019-04-07T02:03:46.255Z,11.48
2019-04-07T02:06:34.917Z,11.45
2019-04-07T02:09:23.652Z,11.39
2019-04-07T02:12:10.400Z,11.39
2019-04-07T02:14:41.055Z,11.41
2019-04-07T02:17:11.946Z,11.41
2019-04-07T02:19:42.101Z,11.37
2019-04-07T02:22:28.968Z,11.28
2019-04-07T02:25:07.626Z,11.27
2019-04-07T02:27:38.233Z,11.27
2019-04-07T02:30:21.817Z,11.25
2019-04-07T02:33:08.470Z,11.21
2019-04-07T02:36:12.120Z,11.21
2019-04-07T02:38:31.597Z,11.08
2019-04-07T02:41:09.065Z,11.21
2019-04-07T02:43:55.582Z,11.06
2019-04-07T02:46:26.919Z,11.12
2019-04-07T02:48:57.744Z,11.11
2019-04-07T02:51:40.346Z,11.05
2019-04-07T02:54:25.812Z,11.08
2019-04-07T02:56:56.044Z,10.90
2019-04-07T02:59:27.115Z,10.90
2019-04-07T03:02:14.286Z,10.82
2019-04-07T03:05:02.507Z,10.94
2019-04-07T03:07:32.808Z,10.82
2019-04-07T03:10:08.944Z,10.79
2019-04-07T03:12:48.625Z,10.83
2019-04-07T03:15:21.557Z,10.77
2019-04-07T03:18:00.793Z,10.72
2019-04-07T03:20:47.513Z,10.72
2019-04-07T03:23:32.643Z,10.73
2019-04-07T03:26:09.413Z,10.64
2019-04-07T03:28:52.524Z,10.62
2019-04-07T03:31:40.871Z,10.65
2019-04-07T03:34:28.400Z,10.53
2019-04-07T03:37:25.823Z,10.57
2019-04-07T03:39:38.316Z,10.54
2019-04-07T03:42:08.704Z,10.36
2019-04-07T03:44:51.358Z,10.37
2019-04-07T03:47:24.145Z,10.37
2019-04-07T03:49:55.030Z,10.33
2019-04-07T03:52:25.325Z,10.22
2019-04-07T03:54:55.402Z,10.23
2019-04-07T03:57:28.197Z,10.29
2019-04-07T04:00:04.280Z,10.31
2019-04-07T04:02:37.788Z,10.08
2019-04-07T04:05:10.718Z,10.17
2019-04-07T04:07:44.170Z,10.20
2019-04-07T04:10:14.510Z,10.27
2019-04-07T04:12:44.595Z,10.24
2019-04-07T04:15:24.481Z,10.25
2019-04-07T04:17:53.897Z,10.20
2019-04-07T04:20:22.469Z,10.09
2019-04-07T04:22:50.929Z,10.00
2019-04-07T04:25:19.464Z,10.04
2019-04-07T04:27:48.644Z,10.00
2019-04-07T04:30:17.334Z,10.05
2019-04-07T04:32:46.385Z,9.98
2019-04-07T04:35:15.063Z,10.00
2019-04-07T04:37:49.645Z,10.00
2019-04-07T04:40:15.954Z,10.04
2019-04-07T04:42:44.505Z,10.03
2019-04-07T04:45:13.822Z,9.90
2019-04-07T04:47:42.909Z,10.09
2019-04-07T04:50:12.789Z,9.99
2019-04-07T04:52:42.419Z,9.97
2019-04-07T04:55:11.426Z,10.00
2019-04-07T04:57:40.495Z,10.03
2019-04-07T05:00:09.210Z,10.04
2019-04-07T05:02:38.239Z,10.17
2019-04-07T05:05:09.449Z,10.07
2019-04-07T05:07:49.868Z,10.09
2019-04-07T05:10:08.443Z,10.14
2019-04-07T05:12:37.027Z,10.09
2019-04-07T05:15:07.721Z,10.09
2019-04-07T05:17:36.918Z,10.16
2019-04-07T05:20:07.145Z,10.06
2019-04-07T05:22:35.890Z,10.21
2019-04-07T05:25:06.890Z,10.29
2019-04-07T05:27:35.412Z,10.27
2019-04-07T05:30:06.659Z,10.27
2019-04-07T05:32:35.275Z,10.37
2019-04-07T05:35:04.396Z,10.44
2019-04-07T05:37:32.947Z,10.31
2019-04-07T05:40:02.917Z,10.60
2019-04-07T05:42:32.684Z,10.59
2019-04-07T05:45:01.400Z,10.77
2019-04-07T05:47:29.898Z,10.98
2019-04-07T05:49:59.638Z,10.97
2019-04-07T05:52:28.521Z,10.97
2019-04-07T05:54:57.793Z,11.11
2019-04-07T05:57:26.407Z,11.21
2019-04-07T05:59:54.929Z,11.40
2019-04-07T06:02:23.400Z,11.61
2019-04-07T06:04:52.451Z,11.41
2019-04-07T06:07:21.260Z,11.48
2019-04-07T06:09:52.631Z,11.50
2019-04-07T06:12:21.519Z,11.48
2019-04-07T06:14:50.837Z,11.43
2019-04-07T06:17:19.474Z,11.43
2019-04-07T06:19:50.637Z,11.62
2019-04-07T06:22:20.651Z,11.76
2019-04-07T06:24:48.760Z,11.74
2019-04-07T06:27:18.148Z,11.74
2019-04-07T06:29:47.883Z,11.82
2019-04-07T06:32:16.644Z,11.72
2019-04-07T06:34:46.174Z,11.70
2019-04-07T06:37:15.352Z,11.89
2019-04-07T06:39:44.067Z,12.00
2019-04-07T06:42:13.088Z,11.83
2019-04-07T06:44:41.573Z,11.50
2019-04-07T06:47:11.894Z,11.79
2019-04-07T06:49:46.286Z,12.18
2019-04-07T06:52:17.144Z,12.18
2019-04-07T06:54:52.022Z,12.02
2019-04-07T06:57:37.744Z,12.16
2019-04-07T07:00:25.839Z,12.30
2019-04-07T07:03:05.354Z,12.48
2019-04-07T07:05:38.789Z,12.66
2019-04-07T07:08:10.005Z,12.56
2019-04-07T07:10:43.038Z,12.63
2019-04-07T07:13:26.531Z,12.73
2019-04-07T07:16:07.938Z,12.88
2019-04-07T07:18:35.694Z,12.91
2019-04-07T07:21:08.658Z,12.64
2019-04-07T07:23:38.794Z,12.88
2019-04-07T07:26:07.240Z,13.13
2019-04-07T07:28:36.059Z,13.18
2019-04-07T07:31:05.442Z,13.28
2019-04-07T07:33:34.424Z,13.42
2019-04-07T07:36:03.420Z,13.44
2019-04-07T07:38:32.719Z,13.52
2019-04-07T07:41:03.438Z,13.51
2019-04-07T07:43:32.336Z,13.72
2019-04-07T07:46:00.806Z,13.81
2019-04-07T07:48:29.262Z,13.95
2019-04-07T07:50:57.726Z,13.93
2019-04-07T07:53:28.392Z,13.94
2019-04-07T07:55:56.569Z,14.08
2019-04-07T07:58:28.031Z,14.10
2019-04-07T08:00:55.565Z,14.18
2019-04-07T08:03:24.068Z,14.35
2019-04-07T08:05:53.283Z,14.43
2019-04-07T08:08:21.853Z,14.46
2019-04-07T08:10:50.733Z,14.66
2019-04-07T08:13:20.077Z,14.84
2019-04-07T08:15:49.380Z,14.86
2019-04-07T08:18:19.829Z,14.85
2019-04-07T08:20:48.285Z,14.96
2019-04-07T08:23:17.422Z,15.17
2019-04-07T08:25:46.107Z,15.08
2019-04-07T08:28:14.747Z,15.05
2019-04-07T08:30:46.623Z,15.23
2019-04-07T08:33:13.393Z,15.38
2019-04-07T08:35:42.628Z,15.34
2019-04-07T08:38:12.235Z,15.43
2019-04-07T08:40:40.815Z,15.58
2019-04-07T08:43:09.317Z,15.61
2019-04-07T08:45:38.150Z,15.97
2019-04-07T08:48:07.370Z,15.85
2019-04-07T08:50:36.326Z,15.92
2019-04-07T08:53:04.891Z,16.01
2019-04-07T08:55:33.559Z,16.09
2019-04-07T08:58:04.287Z,16.00
2019-04-07T09:00:33.818Z,16.06
2019-04-07T09:03:07.676Z,16.10
2019-04-07T09:05:33.427Z,16.10
2019-04-07T09:08:05.553Z,16.05
2019-04-07T09:10:37.226Z,16.13
2019-04-07T09:13:09.109Z,16.09
2019-04-07T09:15:44.134Z,16.24
2019-04-07T09:18:19.420Z,16.27
2019-04-07T09:20:49.502Z,16.34
2019-04-07T09:23:20.117Z,16.46
2019-04-07T09:26:05.622Z,16.54
2019-04-07T09:28:36.649Z,16.65
2019-04-07T09:31:09.415Z,16.62
2019-04-07T09:33:55.087Z,16.75
2019-04-07T09:36:26.378Z,16.65
2019-04-07T09:39:03.923Z,16.68
2019-04-07T09:41:48.602Z,16.72
2019-04-07T09:44:22.025Z,16.98
2019-04-07T09:46:52.161Z,17.15
2019-04-07T09:49:35.323Z,17.18
2019-04-07T09:52:22.123Z,17.05
2019-04-07T09:54:55.665Z,17.33
2019-04-07T09:57:42.184Z,17.23
2019-04-07T10:00:27.811Z,17.19
2019-04-07T10:02:57.964Z,17.13
2019-04-07T10:05:44.486Z,17.17
2019-04-07T10:08:18.944Z,17.26
2019-04-07T10:11:07.598Z,17.29
2019-04-07T10:13:37.767Z,17.46
2019-04-07T10:16:11.899Z,17.50
2019-04-07T10:18:42.927Z,17.38
2019-04-07T10:21:13.389Z,17.38
2019-04-07T10:23:50.644Z,17.30
2019-04-07T10:26:21.062Z,17.47
2019-04-07T10:28:51.764Z,17.47
2019-04-07T10:31:37.879Z,17.56
2019-04-07T10:34:08.244Z,17.55
2019-04-07T10:36:38.730Z,17.64
2019-04-07T10:39:13.031Z,17.80
2019-04-07T10:42:01.516Z,17.79
2019-04-07T10:44:44.064Z,17.77
2019-04-07T10:47:17.133Z,17.62
2019-04-07T10:50:01.457Z,17.72
2019-04-07T10:52:31.423Z,17.94
2019-04-07T10:55:07.411Z,17.72
2019-04-07T10:57:43.636Z,17.57
2019-04-07T11:00:14.635Z,17.71
2019-04-07T11:02:47.948Z,17.82
2019-04-07T11:05:18.583Z,17.72
2019-04-07T11:08:04.897Z,17.81
2019-04-07T11:10:51.686Z,17.80
2019-04-07T11:13:24.476Z,17.83
2019-04-07T11:15:55.189Z,17.87
2019-04-07T11:18:27.962Z,17.84
2019-04-07T11:21:07.268Z,17.93
2019-04-07T11:23:40.418Z,17.84
2019-04-07T11:26:13.557Z,18.03
2019-04-07T11:28:44.500Z,18.09
2019-04-07T11:31:14.693Z,18.13
2019-04-07T11:33:51.019Z,18.15
2019-04-07T11:36:31.011Z,17.89
2019-04-07T11:39:19.985Z,17.86
2019-04-07T11:41:59.077Z,17.96
2019-04-07T11:44:45.587Z,18.01
2019-04-07T11:47:18.623Z,18.13
2019-04-07T11:49:49.413Z,18.28
2019-04-07T11:52:20.031Z,18.40
2019-04-07T11:54:51.085Z,18.36
2019-04-07T11:57:21.536Z,18.25
2019-04-07T11:59:57.651Z,18.36
2019-04-07T12:02:28.421Z,18.47
2019-04-07T12:05:01.538Z,18.34
2019-04-07T12:07:41.346Z,18.45
2019-04-07T12:10:27.848Z,18.43
2019-04-07T12:13:04.740Z,18.49
2019-04-07T12:15:37.643Z,18.47
2019-04-07T12:18:16.813Z,18.54
2019-04-07T12:20:46.113Z,18.54
2019-04-07T12:23:23.317Z,18.49
2019-04-07T12:25:51.495Z,18.58
2019-04-07T12:28:37.627Z,18.67
2019-04-07T12:31:17.439Z,18.68
2019-04-07T12:34:03.889Z,18.61
2019-04-07T12:36:40.892Z,18.65
2019-04-07T12:39:16.255Z,18.62
2019-04-07T12:41:45.935Z,18.69
2019-04-07T12:44:19.127Z,18.68
2019-04-07T12:46:49.726Z,18.80
2019-04-07T12:49:23.152Z,18.89
2019-04-07T12:52:00.219Z,18.84
2019-04-07T12:54:41.378Z,18.96
2019-04-07T12:57:20.223Z,19.14
2019-04-07T13:00:06.971Z,19.18
2019-04-07T13:02:42.639Z,19.02
2019-04-07T13:05:13.247Z,19.07
2019-04-07T13:07:48.412Z,19.32
2019-04-07T13:10:20.882Z,19.35
2019-04-07T13:13:08.019Z,19.41
2019-04-07T13:15:45.563Z,19.38
2019-04-07T13:18:13.537Z,19.37
2019-04-07T13:20:59.869Z,19.32
2019-04-07T13:23:31.479Z,19.39
2019-04-07T13:26:02.207Z,19.32
2019-04-07T13:28:44.557Z,19.43
2019-04-07T13:31:21.256Z,19.43
2019-04-07T13:34:04.267Z,19.28
2019-04-07T13:36:34.519Z,19.12
2019-04-07T13:39:19.877Z,19.23
2019-04-07T13:41:55.305Z,19.20
2019-04-07T13:44:33.525Z,19.18
2019-04-07T13:47:22.093Z,19.14
2019-04-07T13:49:57.336Z,19.10
2019-04-07T13:52:26.830Z,19.37
2019-04-07T13:55:13.029Z,19.38
2019-04-07T13:58:00.438Z,19.38
2019-04-07T14:00:30.635Z,19.44
2019-04-07T14:03:01.405Z,19.57
2019-04-07T14:05:32.090Z,19.52
2019-04-07T14:08:22.321Z,19.49
2019-04-07T14:11:10.098Z,19.59
2019-04-07T14:13:45.716Z,19.60
2019-04-07T14:16:16.016Z,19.66
2019-04-07T14:18:54.322Z,19.78
2019-04-07T14:21:36.082Z,19.71
2019-04-07T14:24:15.486Z,19.76
2019-04-07T14:26:45.600Z,19.51
2019-04-07T14:29:21.997Z,19.59
2019-04-07T14:31:59.295Z,19.63
2019-04-07T14:34:32.745Z,19.69
2019-04-07T14:37:16.428Z,19.65
2019-04-07T14:40:01.602Z,19.91
2019-04-07T14:42:34.236Z,19.97
2019-04-07T14:45:07.785Z,20.20
2019-04-07T14:47:56.101Z,20.09
2019-04-07T14:50:26.481Z,19.99
2019-04-07T14:52:56.796Z,20.10
2019-04-07T14:55:39.967Z,20.20
2019-04-07T14:58:18.695Z,20.42
2019-04-07T15:00:49.111Z,20.08
2019-04-07T15:03:17.670Z,20.16
2019-04-07T15:05:48.390Z,20.29
2019-04-07T15:08:34.381Z,20.02
2019-04-07T15:11:20.691Z,19.93
2019-04-07T15:13:49.474Z,20.20
2019-04-07T15:16:18.529Z,20.12
2019-04-07T15:18:47.101Z,20.05
2019-04-07T15:21:15.686Z,19.86
2019-04-07T15:23:46.196Z,19.86
2019-04-07T15:26:16.318Z,19.81
2019-04-07T15:28:44.645Z,19.55
2019-04-07T15:31:13.134Z,19.54
2019-04-07T15:33:42.327Z,19.46
2019-04-07T15:36:10.916Z,19.49
2019-04-07T15:38:41.422Z,19.57
2019-04-07T15:41:15.279Z,19.51
2019-04-07T15:43:40.097Z,19.20
2019-04-07T15:46:09.342Z,19.32
2019-04-07T15:48:38.787Z,19.23
2019-04-07T15:51:07.974Z,19.20
2019-04-07T15:53:37.003Z,19.16
2019-04-07T15:56:06.966Z,19.18
2019-04-07T15:58:35.629Z,19.10
2019-04-07T16:01:06.736Z,19.14
2019-04-07T16:03:34.533Z,19.08
2019-04-07T16:06:03.514Z,19.02
2019-04-07T16:08:32.057Z,18.87
2019-04-07T16:11:00.766Z,18.98
2019-04-07T16:13:29.449Z,19.00
2019-04-07T16:15:57.892Z,19.04
2019-04-07T16:18:26.431Z,18.99
2019-04-07T16:20:54.919Z,19.00
2019-04-07T16:23:23.423Z,18.99
2019-04-07T16:25:52.307Z,18.89
2019-04-07T16:28:20.875Z,18.81
2019-04-07T16:30:51.894Z,18.75
2019-04-07T16:33:19.538Z,18.78
2019-04-07T16:35:53.447Z,18.86
2019-04-07T16:38:18.447Z,18.65
2019-04-07T16:40:46.934Z,18.65
2019-04-07T16:43:17.703Z,18.60
2019-04-07T16:45:46.274Z,18.62
2019-04-07T16:48:16.141Z,18.59
2019-04-07T16:50:45.173Z,18.52
2019-04-07T16:53:13.922Z,18.54
2019-04-07T16:55:46.690Z,18.49
2019-04-07T16:58:14.418Z,18.43
2019-04-07T17:00:43.005Z,18.46
2019-04-07T17:03:11.633Z,18.38
2019-04-07T17:05:40.145Z,18.34
2019-04-07T17:08:08.845Z,18.25
2019-04-07T17:10:37.455Z,18.20
2019-04-07T17:13:16.705Z,18.20
2019-04-07T17:15:39.497Z,18.20
2019-04-07T17:18:09.794Z,18.14
2019-04-07T17:20:38.327Z,18.15
2019-04-07T17:23:07.070Z,18.09
2019-04-07T17:25:35.972Z,17.97
2019-04-07T17:28:06.179Z,18.05
2019-04-07T17:30:35.943Z,18.09
2019-04-07T17:33:05.525Z,18.05
2019-04-07T17:35:35.816Z,17.98
2019-04-07T17:38:07.072Z,17.92
2019-04-07T17:40:37.693Z,17.83
2019-04-07T17:43:28.732Z,17.73
2019-04-07T17:46:01.998Z,17.72
2019-04-07T17:48:49.489Z,17.55
2019-04-07T17:51:30.707Z,17.48
2019-04-07T17:54:03.567Z,17.44
2019-04-07T17:56:43.172Z,17.33
2019-04-07T17:59:26.222Z,17.29
2019-04-07T18:02:12.502Z,17.29
2019-04-07T18:04:53.631Z,17.24
2019-04-07T18:07:36.161Z,17.03
2019-04-07T18:10:04.863Z,16.97
2019-04-07T18:12:35.709Z,16.84
2019-04-07T18:15:09.895Z,16.83
2019-04-07T18:17:38.554Z,16.93
2019-04-07T18:20:12.967Z,16.84
2019-04-07T18:22:43.097Z,16.88
2019-04-07T18:25:17.277Z,16.82
2019-04-07T18:27:50.692Z,16.71
2019-04-07T18:30:31.479Z,16.71
2019-04-07T18:33:00.792Z,16.63
2019-04-07T18:35:34.682Z,16.63
2019-04-07T18:38:21.793Z,16.71
2019-04-07T18:40:58.299Z,16.55
2019-04-07T18:43:50.754Z,16.35
2019-04-07T18:46:16.956Z,16.28
2019-04-07T18:48:49.853Z,16.29
2019-04-07T18:51:20.093Z,16.24
2019-04-07T18:54:09.846Z,16.26
2019-04-07T18:56:46.098Z,16.23
2019-04-07T18:59:20.118Z,16.26
2019-04-07T19:01:56.439Z,16.06
2019-04-07T19:04:28.386Z,16.08
2019-04-07T19:07:04.273Z,15.96
2019-04-07T19:09:41.163Z,15.87
2019-04-07T19:12:16.727Z,15.86
2019-04-07T19:14:48.115Z,15.86
2019-04-07T19:17:23.413Z,15.85
2019-04-07T19:20:09.249Z,15.81
2019-04-07T19:22:50.690Z,15.78
2019-04-07T19:25:36.179Z,15.72
2019-04-07T19:28:12.614Z,15.75
2019-04-07T19:30:45.359Z,15.76
2019-04-07T19:33:24.509Z,15.69
2019-04-07T19:36:12.465Z,15.69
2019-04-07T19:38:50.904Z,15.74
2019-04-07T19:41:32.227Z,15.71
2019-04-07T19:44:01.954Z,15.66
2019-04-07T19:46:43.372Z,15.54
2019-04-07T19:49:20.459Z,15.53
2019-04-07T19:51:49.425Z,15.48
2019-04-07T19:54:34.162Z,15.44
2019-04-07T19:57:23.645Z,15.52
2019-04-07T20:00:14.615Z,15.40
2019-04-07T20:02:51.092Z,15.31
2019-04-07T20:05:21.242Z,15.31
2019-04-07T20:07:59.312Z,15.41
2019-04-07T20:10:45.093Z,15.29
2019-04-07T20:13:15.580Z,15.34
2019-04-07T20:15:56.594Z,15.29
2019-04-07T20:18:35.377Z,15.21
2019-04-07T20:21:08.825Z,15.04
2019-04-07T20:23:44.745Z,14.91
2019-04-07T20:26:30.532Z,14.90
2019-04-07T20:29:05.061Z,14.88
2019-04-07T20:31:51.634Z,14.72
2019-04-07T20:34:23.188Z,14.67
2019-04-07T20:36:54.882Z,14.64
2019-04-07T20:39:41.274Z,14.47
2019-04-07T20:42:15.911Z,14.51
2019-04-07T20:44:43.364Z,14.43
2019-04-07T20:47:16.031Z,14.39
2019-04-07T20:49:58.872Z,14.40
2019-04-07T20:52:29.856Z,14.37
2019-04-07T20:55:07.457Z,14.35
2019-04-07T20:57:56.433Z,14.37
2019-04-07T21:00:37.147Z,14.40
2019-04-07T21:03:15.220Z,14.34
2019-04-07T21:05:44.266Z,14.24
2019-04-07T21:08:25.424Z,14.28
2019-04-07T21:10:56.021Z,14.20
2019-04-07T21:13:39.571Z,14.13
2019-04-07T21:16:10.227Z,14.10
2019-04-07T21:18:46.852Z,14.03
2019-04-07T21:21:26.136Z,13.98
2019-04-07T21:23:59.448Z,13.90
2019-04-07T21:26:35.965Z,13.90
2019-04-07T21:29:10.934Z,13.81
2019-04-07T21:31:56.094Z,13.93
2019-04-07T21:34:28.422Z,13.77
2019-04-07T21:37:16.233Z,13.74
2019-04-07T21:40:04.358Z,13.77
2019-04-07T21:42:54.088Z,13.75
2019-04-07T21:45:37.110Z,13.58
2019-04-07T21:48:15.799Z,13.54
2019-04-07T21:50:46.031Z,13.52
2019-04-07T21:53:16.117Z,13.47
2019-04-07T21:56:03.923Z,13.52
2019-04-07T21:58:37.741Z,13.39
2019-04-07T22:01:25.055Z,13.43
2019-04-07T22:03:55.180Z,13.48
2019-04-07T22:06:26.543Z,13.40
2019-04-07T22:08:58.046Z,13.33
2019-04-07T22:11:30.056Z,13.34
2019-04-07T22:13:57.681Z,13.36
2019-04-07T22:16:30.602Z,13.22
2019-04-07T22:18:56.906Z,13.15
2019-04-07T22:21:25.730Z,13.26
2019-04-07T22:23:54.281Z,13.10
2019-04-07T22:26:22.701Z,13.09
2019-04-07T22:28:51.138Z,13.09
2019-04-07T22:31:21.268Z,12.91
2019-04-07T22:33:49.720Z,12.98
2019-04-07T22:36:18.858Z,12.89
2019-04-07T22:38:47.428Z,12.93
2019-04-07T22:41:15.904Z,12.90
2019-04-07T22:43:47.815Z,12.82
2019-04-07T22:46:19.479Z,12.91
2019-04-07T22:48:44.771Z,12.79
2019-04-07T22:51:13.744Z,12.58
2019-04-07T22:53:43.358Z,12.76
2019-04-07T22:56:11.918Z,12.74
2019-04-07T22:58:40.357Z,12.67
2019-04-07T23:01:09.052Z,12.63
2019-04-07T23:03:37.587Z,12.63
2019-04-07T23:06:06.033Z,12.60
2019-04-07T23:08:35.046Z,12.58
2019-04-07T23:11:04.288Z,12.50
2019-04-07T23:13:32.813Z,12.50
2019-04-07T23:16:10.877Z,12.51
2019-04-07T23:18:31.779Z,12.42
2019-04-07T23:21:01.125Z,12.38
2019-04-07T23:23:30.883Z,12.38
2019-04-07T23:25:59.868Z,12.41
2019-04-07T23:28:28.405Z,12.28
2019-04-07T23:30:56.968Z,12.32
2019-04-07T23:33:25.591Z,12.20
2019-04-07T23:35:54.061Z,12.05
2019-04-07T23:38:22.509Z,12.28
2019-04-07T23:40:51.500Z,12.34
2019-04-07T23:43:20.023Z,12.25
2019-04-07T23:45:48.507Z,12.05
2019-04-07T23:48:17.934Z,12.10
2019-04-07T23:50:46.599Z,12.13
2019-04-07T23:53:52.423Z,12.11
2019-04-07T23:56:21.017Z,12.10
2019-04-07T23:58:49.891Z,11.95
